Flight Track Log - Related Links

Times and Time Zones

All times are in EDT time to prevent confusion due to time zone crossing. See the SKW5517 flight status page for this flight to view local times or setup timezone preferences in your user account.

Time Position Orientation Groundspeed Altitude Reporting Facility
EDT Latitude Longitude Course Direction KTS MPH feet Rate Location/Type
Mon 10:09:00 PM 39.6374 -105.1995 241° Southwest  Level Estimated
Mon 10:10:00 PM 39.5809 -105.3305 241° Southwest  Level Estimated
Mon 10:11:00 PM 39.5243 -105.4613 241° Southwest  Level Estimated
Mon 10:12:00 PM 39.4676 -105.5919 241° Southwest  Level Estimated
Mon 10:13:00 PM 39.4107 -105.7224 241° Southwest  Level Estimated
Mon 10:14:00 PM 39.3537 -105.8525 241° Southwest  Level Estimated
Mon 10:15:00 PM 39.2965 -105.9825 240° Southwest  Level Estimated
Mon 10:16:00 PM 39.2392 -106.1123 240° Southwest  Level Estimated
Mon 10:17:00 PM 39.1818 -106.2418 240° Southwest  Level Estimated
Mon 10:18:00 PM 39.1241 -106.3712 240° Southwest  Level Estimated
Mon 10:19:00 PM 39.0664 -106.5003 240° Southwest  Level Estimated
Mon 10:20:00 PM 39.0085 -106.6292 240° Southwest  Level Estimated
Mon 10:21:00 PM 38.9505 -106.7579 240° Southwest  Level Estimated
Mon 10:22:00 PM 38.8923 -106.8864 240° Southwest  Level Estimated
Mon 10:23:00 PM 38.8340 -107.0147 240° Southwest  Level Estimated
Mon 10:24:00 PM 38.7756 -107.1428 240° Southwest  Level Estimated
Mon 10:25:00 PM 38.7170 -107.2706 240° Southwest  Level Estimated
Mon 10:26:00 PM 38.6582 -107.3983 240° Southwest  Level Estimated
Mon 10:27:00 PM 38.5994 -107.5257 239° Southwest  Level Estimated
Mon 10:28:00 PM 38.5404 -107.6529 239° Southwest  Level Estimated
Mon 10:29:00 PM 38.4812 -107.7800 239° Southwest  Level Estimated
Mon 10:30:00 PM 38.4219 -107.9068 239° Southwest  Level Estimated
Mon 10:31:00 PM 38.3625 -108.0334 239° Southwest  Level Estimated
Mon 10:32:00 PM 38.3030 -108.1598 239° Southwest  Level Estimated
Mon 10:33:00 PM 38.2433 -108.2860 239° Southwest  Level Estimated
Mon 10:34:00 PM 38.1834 -108.4120 239° Southwest  Level Estimated
Mon 10:35:00 PM 38.1235 -108.5378 239° Southwest  Level Estimated
Mon 10:36:00 PM 38.0634 -108.6633 239° Southwest  Level Estimated
Mon 10:37:00 PM 38.0032 -108.7887 239° Southwest  Level Estimated
Mon 10:38:00 PM 37.9428 -108.9138 239° Southwest  Level Estimated
Mon 10:39:00 PM 37.8823 -109.0388 239° Southwest  Level Estimated
Mon 10:40:00 PM 37.8217 -109.1636 238° Southwest  Level Estimated
Mon 10:41:00 PM 37.7610 -109.2881 238° Southwest  Level Estimated
Mon 10:42:00 PM 37.7001 -109.4124 238° Southwest  Level Estimated
Mon 10:43:00 PM 37.6391 -109.5366 238° Southwest  Level Estimated
Mon 10:44:00 PM 37.5779 -109.6605 238° Southwest  Level Estimated
Mon 10:45:00 PM 37.5167 -109.7842 238° Southwest  Level Estimated
Mon 10:46:00 PM 37.4553 -109.9078 238° Southwest  Level Estimated
Mon 10:47:00 PM 37.3937 -110.0311 238° Southwest  Level Estimated
Mon 10:48:00 PM 37.3321 -110.1542 238° Southwest  Level Estimated
Mon 10:49:00 PM 37.2703 -110.2771 238° Southwest  Level Estimated
Mon 10:50:00 PM 37.2084 -110.3998 238° Southwest  Level Estimated
Mon 10:51:00 PM 37.1463 -110.5223 238° Southwest  Level Estimated
Mon 10:52:00 PM 37.0842 -110.6447 238° Southwest  Level Estimated
Mon 10:53:00 PM 37.0219 -110.7668 237° Southwest  Level Estimated
Mon 10:54:00 PM 36.9594 -110.8887 237° Southwest  Level Estimated
Mon 10:55:00 PM 36.8969 -111.0104 237° Southwest  Level Estimated
Mon 10:56:00 PM 36.8343 -111.1319 237° Southwest  Level Estimated
Mon 10:57:00 PM 36.7715 -111.2532 237° Southwest  Level Estimated
Mon 10:58:00 PM 36.7085 -111.3743 237° Southwest  Level Estimated
Mon 10:59:00 PM 36.6455 -111.4952 237° Southwest  Level Estimated
Mon 11:00:00 PM 36.5824 -111.6160 237° Southwest  Level Estimated
Mon 11:01:00 PM 36.5191 -111.7365 237° Southwest  Level Estimated
Mon 11:02:00 PM 36.4557 -111.8568 237° Southwest  Level Estimated
Mon 11:03:00 PM 36.3922 -111.9769 237° Southwest  Level Estimated
Mon 11:04:00 PM 36.3285 -112.0968 237° Southwest  Level Estimated
Mon 11:05:00 PM 36.2648 -112.2166 237° Southwest  Level Estimated
Mon 11:06:00 PM 36.2009 -112.3361 237° Southwest  Level Estimated
Mon 11:07:00 PM 36.1369 -112.4555 236° Southwest  Level Estimated
Mon 11:08:00 PM 36.0728 -112.5746 236° Southwest  Level Estimated
Mon 11:09:00 PM 36.0086 -112.6936 236° Southwest  Level Estimated
Mon 11:10:00 PM 35.9442 -112.8123 236° Southwest  Level Estimated
Mon 11:11:00 PM 35.8797 -112.9309 236° Southwest  Level Estimated
Mon 11:12:00 PM 35.8152 -113.0493 236° Southwest  Level Estimated
Mon 11:13:00 PM 35.7505 -113.1674 236° Southwest  Level Estimated
Mon 11:14:00 PM 35.6857 -113.2854 236° Southwest  Level Estimated
Mon 11:15:00 PM 35.6207 -113.4032 236° Southwest  Level Estimated
Mon 11:16:00 PM 35.5557 -113.5209 236° Southwest  Level Estimated
Mon 11:17:00 PM 35.4905 -113.6383 236° Southwest  Level Estimated
Mon 11:18:00 PM 35.4253 -113.7555 236° Southwest  Level Estimated
Mon 11:19:00 PM 35.3599 -113.8725 236° Southwest  Level Estimated
Mon 11:20:00 PM 35.2944 -113.9894 236° Southwest  Level Estimated
Mon 11:21:00 PM 35.2288 -114.1060 235° Southwest  Level Estimated
Mon 11:22:00 PM 35.1631 -114.2225 235° Southwest  Level Estimated
Mon 11:23:00 PM 35.0972 -114.3388 235° Southwest  Level Estimated
Mon 11:24:00 PM 35.0313 -114.4549 235° Southwest  Level Estimated
Mon 11:25:00 PM 34.9652 -114.5708 235° Southwest  Level Estimated
Mon 11:26:00 PM 34.8991 -114.6865 235° Southwest  Level Estimated
Mon 11:27:00 PM 34.8328 -114.8020 235° Southwest  Level Estimated
Mon 11:28:00 PM 34.7664 -114.9174 235° Southwest  Level Estimated
Mon 11:29:00 PM 34.6999 -115.0326 235° Southwest  Level Estimated
Mon 11:30:00 PM 34.6333 -115.1475 235° Southwest  Level Estimated
Mon 11:31:00 PM 34.5666 -115.2623 235° Southwest  Level Estimated
Mon 11:32:00 PM 34.4998 -115.3769 235° Southwest  Level Estimated
Mon 11:33:00 PM 34.4329 -115.4913 235° Southwest  Level Estimated
Mon 11:34:00 PM 34.3659 -115.6056 235° Southwest  Level Estimated
Mon 11:35:00 PM 34.2987 -115.7197 235° Southwest  Level Estimated
Mon 11:36:00 PM 34.2315 -115.8335 234° Southwest  Level Estimated
Mon 11:37:00 PM 34.1642 -115.9472 234° Southwest  Level Estimated
Mon 11:38:00 PM 34.0967 -116.0607 234° Southwest  Level Estimated
Mon 11:39:00 PM 34.0292 -116.1740 234° Southwest  Level Estimated
Mon 11:40:00 PM 33.9615 -116.2872 234° Southwest  Level Estimated
Mon 11:41:00 PM 33.8937 -116.4002 234° Southwest  Level Estimated
Mon 11:42:00 PM 33.8297 -116.5067 234° Southwest  Level Estimated
Mon 11:43:00 PM 33.8297 -116.5067 228° Southwest  Level Estimated
Mon 11:44:00 PM 33.8297 -116.5067 228° Southwest  Level Estimated
Mon 11:45:00 PM 33.8297 -116.5067 228° Southwest  Level Estimated
Mon 11:46:00 PM 33.8297 -116.5067 228° Southwest  Level Estimated
Mon 11:47:00 PM 33.8297 -116.5067 228° Southwest  Level Estimated
Mon 11:48:00 PM 33.8297 -116.5067 228° Southwest  Level Estimated

Login

Don't have an account? Register now (free) for customized features, flight alerts, and more!